Lahaina, HI

11:05 PM HST on August 26, 2014 (GMT -1000)
Kahului | Change Station
CLOSE
Current Station
Airport
Location: Kahului,
Elevation: 49 ft
Nearby Weather Stations

Elev 49 ft 20.90 °N, 156.43 °W | Updated 11 minutes ago

Mostly Cloudy
Mostly Cloudy
76 °F
Feels Like 76 °F
N
14
Wind Variable Wind from NE
Gusts 23 mph

Today
High -- | Low -- °F
--% Chance of Precip.
Yesterday
High -- | Low -- °F
Precip. -- in
6:08 AM 6:47 PM
Waxing Crescent, 3% visible
Pressure 29.97 in
Visibility 10.0 miles
Clouds Scattered Clouds 5500 ft
Mostly Cloudy 7000 ft
Dew Point 68 °F
Humidity 76%
Rainfall 0.02 in
Snow Depth Not available.
UV 0 out of 12
Pollen Not available.
Air Quality Not available.
Flu Activity Not available.
METAR PHOG 270854Z AUTO 05012G20KT 10SM SCT055 BKN070 24/20 A2995 RMK AO2 PK WND 04027/0835 SLP147 T02440200 51007 TSNO $

More Conditions Fewer Conditions

Pressure 29.97 in
Visibility 10.0 miles
Clouds Scattered Clouds 5500 ft
Mostly Cloudy 7000 ft
Dew Point 68 °F
Humidity 76%
Rainfall 0.02 in
Snow Depth Not available.
UV 0 out of 12
Pollen Not available.
Air Quality Not available.
Flu Activity Not available.
METAR PHOG 270854Z AUTO 05012G20KT 10SM SCT055 BKN070 24/20 A2995 RMK AO2 PK WND 04027/0835 SLP147 T02440200 51007 TSNO $

More Conditions Fewer Conditions

10-Day Weather Forecast

Almanac

Astronomy

Aug. 26, 2014 Rise Set
Actual Time 6:08 AM HST 6:47 PM HST
Civil Twilight 5:46 AM HST 7:10 PM HST
Nautical Twilight 5:19 AM HST 7:36 PM HST
Astronomical Twilight 4:52 AM HST 8:03 PM HST
Moon 7:05 AM HST (8/26) 7:32 PM HST (8/26)
Length of Visible Light 13h 23m
Length of Day
12h 38m
Tomorrow will be 1m 8s shorter.
Waxing Crescent, 3% of the Moon is Illuminated
Aug 27
Waxing Crescent
Sep 2
First Quarter
Sep 8
Full
Sep 15
Last Quarter
Sep 24
New

Yesterday's Extremes

State Highs State Lows

Community

WunderPhotos

Upload Photos

1,747,661 photos uploaded!

Nearby

Snow Depth

Station Depth Elevation
No new snow has been reported.

Earthquake Activity

City Distance Mag. Time & Date
No recent earthquake activity has been reported nearby.
Minimum magnitude displayed is 2.5.

Coastal Water Temperatures

Place Temperature
No Stations Reporting

Nearby Weather Stations